createdAt,value
2023-02-03T00:01:31.183Z,84.28
2023-02-03T00:03:57.836Z,84.29
2023-02-03T00:06:24.920Z,84.07
2023-02-03T00:08:57.046Z,84.14
2023-02-03T00:11:24.043Z,83.86
2023-02-03T00:13:50.619Z,84.08
2023-02-03T00:16:18.283Z,84.11
2023-02-03T00:18:44.925Z,84.02
2023-02-03T00:21:11.532Z,84.04
2023-02-03T00:23:39.221Z,84.04
2023-02-03T00:26:15.583Z,83.88
2023-02-03T00:28:42.569Z,83.88
2023-02-03T00:31:20.369Z,83.84
2023-02-03T00:33:47.906Z,83.81
2023-02-03T00:36:14.855Z,83.92
2023-02-03T00:38:41.523Z,83.94
2023-02-03T00:41:08.120Z,83.96
2023-02-03T00:43:34.819Z,84.06
2023-02-03T00:46:01.632Z,84.09
2023-02-03T00:48:28.313Z,84.17
2023-02-03T00:50:55.036Z,84.45
2023-02-03T00:53:21.652Z,84.52
2023-02-03T00:55:48.522Z,84.88
2023-02-03T00:58:15.080Z,84.81
2023-02-03T01:00:41.769Z,84.80
2023-02-03T01:03:08.464Z,84.89
2023-02-03T01:05:35.157Z,85.11
2023-02-03T01:08:02.032Z,85.18
2023-02-03T01:10:29.568Z,84.79
2023-02-03T01:12:56.105Z,84.80
2023-02-03T01:15:22.848Z,84.87
2023-02-03T01:17:49.549Z,84.84
2023-02-03T01:20:17.205Z,84.85
2023-02-03T01:22:43.756Z,84.69
2023-02-03T01:25:10.531Z,84.72
2023-02-03T01:27:37.229Z,84.72
2023-02-03T01:30:04.341Z,84.36
2023-02-03T01:32:30.957Z,84.47
2023-02-03T01:34:57.584Z,84.38
2023-02-03T01:37:24.418Z,84.25
2023-02-03T01:39:51.066Z,84.21
2023-02-03T01:42:17.709Z,84.21
2023-02-03T01:44:52.296Z,84.15
2023-02-03T01:47:35.251Z,83.96
2023-02-03T01:50:17.076Z,83.91
2023-02-03T01:52:47.673Z,83.75
2023-02-03T01:55:20.868Z,83.72
2023-02-03T01:57:56.418Z,83.67
2023-02-03T02:00:23.437Z,83.68
2023-02-03T02:02:50.493Z,83.67
2023-02-03T02:05:31.580Z,83.52
2023-02-03T02:08:01.097Z,83.67
2023-02-03T02:10:29.905Z,83.84
2023-02-03T02:12:58.471Z,83.96
2023-02-03T02:15:44.650Z,84.02
2023-02-03T02:18:20.168Z,84.05
2023-02-03T02:21:19.582Z,84.39
2023-02-03T02:24:00.719Z,84.50
2023-02-03T02:26:39.340Z,84.51
2023-02-03T02:29:27.306Z,84.65
2023-02-03T02:32:17.217Z,84.63
2023-02-03T02:35:22.073Z,84.95
2023-02-03T02:37:57.748Z,84.76
2023-02-03T02:40:29.653Z,84.99
2023-02-03T02:43:11.014Z,85.00
2023-02-03T02:45:46.497Z,85.05
2023-02-03T02:48:32.478Z,85.04
2023-02-03T02:51:03.295Z,84.94
2023-02-03T02:53:35.745Z,84.93
2023-02-03T02:56:07.302Z,84.95
2023-02-03T02:58:38.258Z,84.81
2023-02-03T03:01:07.012Z,84.62
2023-02-03T03:03:33.631Z,84.81
2023-02-03T03:06:03.581Z,84.60
2023-02-03T03:09:02.420Z,84.63
2023-02-03T03:11:33.929Z,84.42
2023-02-03T03:14:03.126Z,84.41
2023-02-03T03:16:32.823Z,84.40
2023-02-03T03:19:09.282Z,84.37
2023-02-03T03:21:47.721Z,84.41
2023-02-03T03:24:20.319Z,84.63
2023-02-03T03:26:56.251Z,84.63
2023-02-03T03:29:35.463Z,84.54
2023-02-03T03:32:03.129Z,84.49
2023-02-03T03:34:31.113Z,84.58
2023-02-03T03:37:11.284Z,84.37
2023-02-03T03:39:49.897Z,84.38
2023-02-03T03:42:26.379Z,84.26
2023-02-03T03:45:05.279Z,84.28
2023-02-03T03:47:41.600Z,84.44
2023-02-03T03:50:14.567Z,84.32
2023-02-03T03:52:44.047Z,84.30
2023-02-03T03:55:14.530Z,84.18
2023-02-03T03:58:07.979Z,84.07
2023-02-03T04:00:37.958Z,84.14
2023-02-03T04:03:14.302Z,84.08
2023-02-03T04:05:41.686Z,83.87
2023-02-03T04:08:08.811Z,83.83
2023-02-03T04:10:38.381Z,83.78
2023-02-03T04:13:06.023Z,83.65
2023-02-03T04:15:33.378Z,83.57
2023-02-03T04:18:03.547Z,83.67
2023-02-03T04:20:31.757Z,83.38
2023-02-03T04:22:59.166Z,83.55
2023-02-03T04:25:26.454Z,83.47
2023-02-03T04:27:53.212Z,83.52
2023-02-03T04:30:19.934Z,83.48
2023-02-03T04:32:46.720Z,83.48
2023-02-03T04:35:13.901Z,83.42
2023-02-03T04:37:41.137Z,83.57
2023-02-03T04:40:09.430Z,83.64
2023-02-03T04:42:40.368Z,83.46
2023-02-03T04:45:09.633Z,83.61
2023-02-03T04:47:36.968Z,83.51
2023-02-03T04:50:03.965Z,83.58
2023-02-03T04:52:30.624Z,83.58
2023-02-03T04:54:57.301Z,83.56
2023-02-03T04:57:23.870Z,83.45
2023-02-03T04:59:50.508Z,83.45
2023-02-03T05:02:17.102Z,83.26
2023-02-03T05:04:43.638Z,83.09
2023-02-03T05:07:10.352Z,83.17
2023-02-03T05:09:36.888Z,83.18
2023-02-03T05:12:03.727Z,83.07
2023-02-03T05:14:30.288Z,83.05
2023-02-03T05:16:56.999Z,82.92
2023-02-03T05:19:23.679Z,82.99
2023-02-03T05:21:50.904Z,82.71
2023-02-03T05:24:17.647Z,82.75
2023-02-03T05:26:44.339Z,82.86
2023-02-03T05:29:11.973Z,82.73
2023-02-03T05:31:45.411Z,82.72
2023-02-03T05:34:11.995Z,82.65
2023-02-03T05:36:38.636Z,82.56
2023-02-03T05:39:05.270Z,82.58
2023-02-03T05:41:50.591Z,82.87
2023-02-03T05:44:17.122Z,82.81
2023-02-03T05:46:43.829Z,82.81
2023-02-03T05:49:10.421Z,82.82
2023-02-03T05:51:37.229Z,82.67
2023-02-03T05:54:03.905Z,82.74
2023-02-03T05:56:30.684Z,82.71
2023-02-03T05:58:57.378Z,82.64
2023-02-03T06:01:24.347Z,82.44
2023-02-03T06:03:51.211Z,82.63
2023-02-03T06:06:18.469Z,82.67
2023-02-03T06:08:45.059Z,82.49
2023-02-03T06:11:12.328Z,82.68
2023-02-03T06:13:39.197Z,82.48
2023-02-03T06:16:06.046Z,82.36
2023-02-03T06:18:32.642Z,82.47
2023-02-03T06:20:59.331Z,82.63
2023-02-03T06:23:25.908Z,82.65
2023-02-03T06:25:52.879Z,82.63
2023-02-03T06:28:19.898Z,82.72
2023-02-03T06:30:50.837Z,82.59
2023-02-03T06:33:17.427Z,82.78
2023-02-03T06:35:43.962Z,82.72
2023-02-03T06:38:10.880Z,82.81
2023-02-03T06:40:37.433Z,82.81
2023-02-03T06:43:04.223Z,82.93
2023-02-03T06:45:30.834Z,82.71
2023-02-03T06:47:57.466Z,82.72
2023-02-03T06:50:24.088Z,82.71
2023-02-03T06:52:51.131Z,82.88
2023-02-03T06:55:17.759Z,82.75
2023-02-03T06:57:47.035Z,82.62
2023-02-03T07:00:26.115Z,82.66
2023-02-03T07:02:58.098Z,82.84
2023-02-03T07:05:28.147Z,82.66
2023-02-03T07:07:55.067Z,82.62
2023-02-03T07:10:21.786Z,82.65
2023-02-03T07:12:50.889Z,82.77
2023-02-03T07:15:17.846Z,82.51
2023-02-03T07:17:47.065Z,82.47
2023-02-03T07:20:13.618Z,82.37
2023-02-03T07:22:42.467Z,82.40
2023-02-03T07:25:09.012Z,82.15
2023-02-03T07:27:35.584Z,82.23
2023-02-03T07:30:02.250Z,82.16
2023-02-03T07:32:28.893Z,82.16
2023-02-03T07:34:55.496Z,82.13
2023-02-03T07:37:22.189Z,82.04
2023-02-03T07:39:50.755Z,82.07
2023-02-03T07:42:17.391Z,82.07
2023-02-03T07:44:43.925Z,81.83
2023-02-03T07:47:12.521Z,81.48
2023-02-03T07:49:39.394Z,81.36
2023-02-03T07:52:06.026Z,81.48
2023-02-03T07:54:35.466Z,81.25
2023-02-03T07:57:02.031Z,80.92
2023-02-03T07:59:28.628Z,80.83
2023-02-03T08:01:56.444Z,80.29
2023-02-03T08:04:23.400Z,79.98
2023-02-03T08:06:50.251Z,79.84
2023-02-03T08:09:17.056Z,79.61
2023-02-03T08:11:43.582Z,79.34
2023-02-03T08:14:10.173Z,79.20
2023-02-03T08:16:36.819Z,78.98
2023-02-03T08:19:03.458Z,78.92
2023-02-03T08:21:30.024Z,78.33
2023-02-03T08:23:56.643Z,78.04
2023-02-03T08:26:23.295Z,77.96
2023-02-03T08:28:50.393Z,77.68
2023-02-03T08:31:17.871Z,77.51
2023-02-03T08:33:44.521Z,77.66
2023-02-03T08:36:11.637Z,77.46
2023-02-03T08:38:40.099Z,77.37
2023-02-03T08:41:12.272Z,76.99
2023-02-03T08:43:39.798Z,77.01
2023-02-03T08:46:08.219Z,77.12
2023-02-03T08:48:35.595Z,76.70
2023-02-03T08:51:02.302Z,76.33
2023-02-03T08:53:29.253Z,76.08
2023-02-03T08:55:56.443Z,75.89
2023-02-03T08:58:24.059Z,75.98
2023-02-03T09:00:53.291Z,75.93
2023-02-03T09:03:20.135Z,75.32
2023-02-03T09:05:46.885Z,75.07
2023-02-03T09:08:13.507Z,74.99
2023-02-03T09:10:40.172Z,74.65
2023-02-03T09:13:06.839Z,74.41
2023-02-03T09:15:33.421Z,74.32
2023-02-03T09:17:59.938Z,74.35
2023-02-03T09:20:27.057Z,74.29
2023-02-03T09:22:55.066Z,74.45
2023-02-03T09:25:21.777Z,74.45
2023-02-03T09:27:48.388Z,74.55
2023-02-03T09:30:15.243Z,74.79
2023-02-03T09:32:41.829Z,75.11
2023-02-03T09:35:08.512Z,75.53
2023-02-03T09:37:35.095Z,75.90
2023-02-03T09:40:01.718Z,75.77
2023-02-03T09:42:52.670Z,75.89
2023-02-03T09:45:28.407Z,76.11
2023-02-03T09:47:59.598Z,76.52
2023-02-03T09:50:44.555Z,76.53
2023-02-03T09:53:39.502Z,77.30
2023-02-03T09:56:06.073Z,77.36
2023-02-03T09:58:35.848Z,77.41
2023-02-03T10:01:13.425Z,77.48
2023-02-03T10:04:05.458Z,77.67
2023-02-03T10:06:37.621Z,78.51
2023-02-03T10:21:39.352Z,81.51
2023-02-03T10:24:13.537Z,81.52
2023-02-03T10:26:41.859Z,81.53
2023-02-03T10:29:28.948Z,82.09
2023-02-03T10:31:58.799Z,82.59
2023-02-03T10:34:26.015Z,82.94
2023-02-03T10:37:03.619Z,83.14
2023-02-03T10:39:41.699Z,83.29
2023-02-03T10:42:11.539Z,83.37
2023-02-03T10:44:42.870Z,83.55
2023-02-03T10:47:18.332Z,83.72
2023-02-03T10:49:46.044Z,84.18
2023-02-03T10:52:35.068Z,84.39
2023-02-03T10:55:22.944Z,84.66
2023-02-03T10:57:50.290Z,84.77
2023-02-03T11:00:22.797Z,85.08
2023-02-03T11:03:28.964Z,85.11
2023-02-03T11:06:16.302Z,85.24
2023-02-03T11:08:48.363Z,85.68
2023-02-03T11:11:23.273Z,85.80
2023-02-03T11:14:03.305Z,85.74
2023-02-03T11:16:32.196Z,85.79
2023-02-03T11:19:10.252Z,85.96
2023-02-03T11:21:39.937Z,85.97
2023-02-03T11:24:32.841Z,86.06
2023-02-03T11:27:05.002Z,86.39
2023-02-03T11:29:35.955Z,86.41
2023-02-03T11:32:14.465Z,86.51
2023-02-03T11:35:06.827Z,86.67
2023-02-03T11:37:39.457Z,86.76
2023-02-03T11:40:09.034Z,86.85
2023-02-03T11:42:38.230Z,86.95
2023-02-03T11:45:15.002Z,86.94
2023-02-03T11:47:49.873Z,87.15
2023-02-03T11:50:28.774Z,87.35
2023-02-03T11:53:07.334Z,87.47
2023-02-03T11:55:35.031Z,87.68
2023-02-03T11:58:10.462Z,87.82
2023-02-03T12:00:55.531Z,88.18
2023-02-03T12:03:50.003Z,88.28
2023-02-03T12:06:32.841Z,88.08
2023-02-03T12:09:05.318Z,88.20
2023-02-03T12:11:53.328Z,88.03
2023-02-03T12:14:51.353Z,88.28
2023-02-03T12:17:43.647Z,88.31
2023-02-03T12:20:40.631Z,88.29
2023-02-03T12:23:29.976Z,88.50
2023-02-03T12:26:11.335Z,88.63
2023-02-03T12:28:56.553Z,88.69
2023-02-03T12:31:34.620Z,89.04
2023-02-03T12:34:23.162Z,89.06
2023-02-03T12:36:58.981Z,89.22
2023-02-03T12:39:36.690Z,89.27
2023-02-03T12:42:12.803Z,89.43
2023-02-03T12:44:48.760Z,89.49
2023-02-03T12:47:40.112Z,89.83
2023-02-03T12:50:29.272Z,89.94
2023-02-03T12:53:06.256Z,90.01
2023-02-03T12:55:47.597Z,90.25
2023-02-03T12:58:22.293Z,90.30
2023-02-03T13:00:51.842Z,90.37
2023-02-03T13:03:28.370Z,90.51
2023-02-03T13:06:09.432Z,90.73
2023-02-03T13:08:56.265Z,90.75
2023-02-03T13:11:32.146Z,90.82
2023-02-03T13:14:08.083Z,90.92
2023-02-03T13:16:40.812Z,90.99
2023-02-03T13:19:15.229Z,90.95
2023-02-03T13:21:42.150Z,91.29
2023-02-03T13:24:11.473Z,91.26
2023-02-03T13:26:54.283Z,91.53
2023-02-03T13:29:32.390Z,91.60
2023-02-03T13:32:17.288Z,91.61
2023-02-03T13:35:08.227Z,91.65
2023-02-03T13:37:53.401Z,91.98
2023-02-03T13:40:33.410Z,92.10
2023-02-03T13:43:13.376Z,92.27
2023-02-03T13:45:46.606Z,92.28
2023-02-03T13:48:23.578Z,92.50
2023-02-03T13:51:02.728Z,92.54
2023-02-03T13:53:35.887Z,92.61
2023-02-03T13:56:04.786Z,92.67
2023-02-03T13:58:34.418Z,92.76
2023-02-03T14:01:26.496Z,92.97
2023-02-03T14:03:53.619Z,93.09
2023-02-03T14:06:39.626Z,93.19
2023-02-03T14:09:31.924Z,93.32
2023-02-03T14:12:21.942Z,93.47
2023-02-03T14:14:51.568Z,93.55
2023-02-03T14:17:47.653Z,93.54
2023-02-03T14:20:29.524Z,93.60
2023-02-03T14:23:01.875Z,93.73
2023-02-03T14:25:30.136Z,93.75
2023-02-03T14:28:07.757Z,93.85
2023-02-03T14:31:17.119Z,94.02
2023-02-03T14:33:53.953Z,94.01
2023-02-03T14:36:44.740Z,93.99
2023-02-03T14:39:17.491Z,94.24
2023-02-03T14:42:18.653Z,94.23
2023-02-03T14:45:04.876Z,94.22
2023-02-03T14:47:34.489Z,94.20
2023-02-03T14:50:22.069Z,94.29
2023-02-03T14:53:33.850Z,94.42
2023-02-03T14:56:00.430Z,94.32
2023-02-03T14:58:36.143Z,94.36
2023-02-03T15:01:08.406Z,94.41
2023-02-03T15:03:37.907Z,94.43
2023-02-03T15:06:05.798Z,94.50
2023-02-03T15:08:44.892Z,94.63
2023-02-03T15:11:33.625Z,94.65
2023-02-03T15:14:31.292Z,94.84
2023-02-03T15:17:03.295Z,94.80
2023-02-03T15:19:34.904Z,94.73
2023-02-03T15:22:02.530Z,94.89
2023-02-03T15:24:37.055Z,94.83
2023-02-03T15:27:03.960Z,94.90
2023-02-03T15:29:34.392Z,95.03
2023-02-03T15:32:15.666Z,95.02
2023-02-03T15:34:51.771Z,95.21
2023-02-03T15:37:23.918Z,95.17
2023-02-03T15:39:57.227Z,95.20
2023-02-03T15:42:33.971Z,95.22
2023-02-03T15:45:12.273Z,95.10
2023-02-03T15:47:45.714Z,95.01
2023-02-03T15:50:15.259Z,95.37
2023-02-03T15:52:44.563Z,95.33
2023-02-03T15:55:39.557Z,95.44
2023-02-03T15:58:06.998Z,95.44
2023-02-03T16:00:38.948Z,95.27
2023-02-03T16:03:16.716Z,95.52
2023-02-03T16:05:48.939Z,95.38
2023-02-03T16:08:52.132Z,95.60
2023-02-03T16:11:28.997Z,95.61
2023-02-03T16:13:57.272Z,95.70
2023-02-03T16:16:33.257Z,95.64
2023-02-03T16:19:04.487Z,95.78
2023-02-03T16:21:52.553Z,95.73
2023-02-03T16:24:40.431Z,95.90
2023-02-03T16:27:32.210Z,96.00
2023-02-03T16:30:26.654Z,95.86
2023-02-03T16:33:22.529Z,96.04
2023-02-03T16:36:07.494Z,96.05
2023-02-03T16:38:52.955Z,96.05
2023-02-03T16:41:38.374Z,95.99
2023-02-03T16:44:24.423Z,96.19
2023-02-03T16:47:10.512Z,96.04
2023-02-03T16:49:55.938Z,96.07
2023-02-03T16:52:22.576Z,96.10
2023-02-03T16:54:49.528Z,96.05
2023-02-03T16:57:16.789Z,95.98
2023-02-03T16:59:43.685Z,96.06
2023-02-03T17:02:11.006Z,96.05
2023-02-03T17:04:38.978Z,96.06
2023-02-03T17:07:05.710Z,96.05
2023-02-03T17:09:35.567Z,96.09
2023-02-03T17:12:03.117Z,96.15
2023-02-03T17:14:30.355Z,96.16
2023-02-03T17:16:57.039Z,96.01
2023-02-03T17:19:24.003Z,96.16
2023-02-03T17:21:51.761Z,96.05
2023-02-03T17:24:21.545Z,96.03
2023-02-03T17:26:53.437Z,96.08
2023-02-03T17:29:22.517Z,96.17
2023-02-03T17:31:52.102Z,96.08
2023-02-03T17:34:20.808Z,96.24
2023-02-03T17:36:50.186Z,96.06
2023-02-03T17:55:21.274Z,96.16
2023-02-03T17:57:48.020Z,96.01
2023-02-03T18:00:15.144Z,96.11
2023-02-03T18:02:43.224Z,96.17
2023-02-03T18:05:10.646Z,96.09
2023-02-03T18:07:38.276Z,96.11
2023-02-03T18:10:05.201Z,95.98
2023-02-03T18:12:31.903Z,95.89
2023-02-03T18:14:58.521Z,95.81
2023-02-03T18:17:25.325Z,95.85
2023-02-03T18:19:56.204Z,95.79
2023-02-03T18:22:24.298Z,95.68
2023-02-03T18:24:51.842Z,95.80
2023-02-03T18:27:19.215Z,95.93
2023-02-03T18:29:47.092Z,95.81
2023-02-03T18:32:15.483Z,95.97
2023-02-03T18:34:42.447Z,95.80
2023-02-03T18:37:09.339Z,96.05
2023-02-03T18:39:36.257Z,95.98
2023-02-03T18:42:03.824Z,95.92
2023-02-03T18:44:31.731Z,95.73
2023-02-03T18:47:06.972Z,95.96
2023-02-03T18:49:37.705Z,95.78
2023-02-03T18:52:05.019Z,95.68
2023-02-03T18:54:32.117Z,95.64
2023-02-03T18:56:59.127Z,95.70
2023-02-03T18:59:26.252Z,95.84
2023-02-03T19:01:53.273Z,95.82
2023-02-03T19:04:20.334Z,95.93
2023-02-03T19:06:49.986Z,95.85
2023-02-03T19:09:18.242Z,95.82
2023-02-03T19:11:45.449Z,95.67
2023-02-03T19:14:13.817Z,95.64
2023-02-03T19:16:40.745Z,95.87
2023-02-03T19:19:07.987Z,95.74
2023-02-03T19:21:34.940Z,95.74
2023-02-03T19:24:01.923Z,95.98
2023-02-03T19:26:28.584Z,95.74
2023-02-03T19:28:56.182Z,95.79
2023-02-03T19:31:23.274Z,95.91
2023-02-03T19:33:50.122Z,95.91
2023-02-03T19:36:16.912Z,95.80
2023-02-03T19:38:43.666Z,96.04
2023-02-03T19:41:11.765Z,95.99
2023-02-03T19:43:38.619Z,95.92
2023-02-03T19:46:05.561Z,95.83
2023-02-03T19:48:32.346Z,95.97
2023-02-03T19:50:58.858Z,96.03
2023-02-03T19:53:26.438Z,96.06
2023-02-03T19:55:53.320Z,96.14
2023-02-03T19:58:20.156Z,96.01
2023-02-03T20:00:46.838Z,95.98
2023-02-03T20:03:13.395Z,96.04
2023-02-03T20:05:40.193Z,96.14
2023-02-03T20:08:07.605Z,96.04
2023-02-03T20:10:34.398Z,96.20
2023-02-03T20:13:01.365Z,96.15
2023-02-03T20:15:28.674Z,96.20
2023-02-03T20:17:56.265Z,96.16
2023-02-03T20:20:24.439Z,96.12
2023-02-03T20:22:51.063Z,96.17
2023-02-03T20:25:19.388Z,96.05
2023-02-03T20:27:46.261Z,96.25
2023-02-03T20:30:13.632Z,96.11
2023-02-03T20:32:40.471Z,96.02
2023-02-03T20:35:08.484Z,96.12
2023-02-03T20:37:37.719Z,96.13
2023-02-03T20:40:18.668Z,96.06
2023-02-03T20:42:45.310Z,95.94
2023-02-03T20:45:23.999Z,95.84
2023-02-03T20:47:51.787Z,95.84
2023-02-03T20:50:25.259Z,95.94
2023-02-03T20:52:55.603Z,95.86
2023-02-03T20:55:23.767Z,95.91
2023-02-03T20:57:54.207Z,95.95
2023-02-03T21:00:23.641Z,95.93
2023-02-03T21:03:11.059Z,95.89
2023-02-03T21:05:40.250Z,95.90
2023-02-03T21:08:18.190Z,95.93
2023-02-03T21:10:45.935Z,95.99
2023-02-03T21:13:28.660Z,95.98
2023-02-03T21:16:00.316Z,96.12
2023-02-03T21:18:39.143Z,96.18
2023-02-03T21:21:14.204Z,96.12
2023-02-03T21:23:45.596Z,96.05
2023-02-03T21:26:19.260Z,96.17
2023-02-03T21:28:52.171Z,96.12
2023-02-03T21:31:39.622Z,96.02
2023-02-03T21:34:22.823Z,96.12
2023-02-03T21:36:49.526Z,96.23
2023-02-03T21:39:25.393Z,96.23
2023-02-03T21:41:53.375Z,96.05
2023-02-03T21:44:38.351Z,96.22
2023-02-03T21:47:12.071Z,96.26
2023-02-03T21:49:38.687Z,96.10
2023-02-03T21:52:05.723Z,96.32
2023-02-03T21:54:33.885Z,96.22
2023-02-03T21:57:01.310Z,96.36
2023-02-03T21:59:34.831Z,96.26
2023-02-03T22:02:02.489Z,96.35
2023-02-03T22:04:29.809Z,96.39
2023-02-03T22:06:56.652Z,96.14
2023-02-03T22:09:25.933Z,96.32
2023-02-03T22:11:53.234Z,96.33
2023-02-03T22:14:21.170Z,96.27
2023-02-03T22:16:48.573Z,96.34
2023-02-03T22:19:17.615Z,96.16
2023-02-03T22:21:44.908Z,96.17
2023-02-03T22:24:11.851Z,96.19
2023-02-03T22:26:38.613Z,96.18
2023-02-03T22:29:05.732Z,96.29
2023-02-03T22:31:32.880Z,96.30
2023-02-03T22:34:01.678Z,96.34
2023-02-03T22:36:29.895Z,96.38
2023-02-03T22:39:08.831Z,96.20
2023-02-03T22:41:35.498Z,96.38
2023-02-03T22:44:03.654Z,96.19
2023-02-03T22:46:30.521Z,96.32
2023-02-03T22:48:57.226Z,96.23
2023-02-03T22:51:24.915Z,96.24
2023-02-03T22:53:56.347Z,96.27
2023-02-03T22:56:24.683Z,96.24
2023-02-03T22:58:59.979Z,96.30
2023-02-03T23:01:26.600Z,96.25
2023-02-03T23:03:54.712Z,96.40
2023-02-03T23:06:23.152Z,96.37
2023-02-03T23:08:52.343Z,96.40
2023-02-03T23:11:22.054Z,96.22
2023-02-03T23:13:49.093Z,96.37
2023-02-03T23:16:18.301Z,96.38
2023-02-03T23:18:48.453Z,96.31
2023-02-03T23:21:16.585Z,96.41
2023-02-03T23:23:43.284Z,96.42
2023-02-03T23:26:14.404Z,96.51
2023-02-03T23:28:41.038Z,96.45
2023-02-03T23:31:12.690Z,96.56
2023-02-03T23:33:40.879Z,96.47
2023-02-03T23:36:11.767Z,96.43
2023-02-03T23:38:39.544Z,96.59
2023-02-03T23:41:07.172Z,96.50
2023-02-03T23:43:33.872Z,96.49
2023-02-03T23:46:00.568Z,96.59
2023-02-03T23:48:29.911Z,96.58
2023-02-03T23:50:56.525Z,96.54
2023-02-03T23:53:25.469Z,96.70
2023-02-03T23:55:55.338Z,96.67
2023-02-03T23:58:24.459Z,96.66
